< < Back
Terminal Aerodrome Forecast


Current Version              Previous Versions:   1  2  3  4  5  6  7  8  9  

Terminal Aerodrome Forecast

792
FTUS42 KJAX 011759 AAA
TAFJAX
TAF AMD
KJAX 011759Z 0118/0218 16012G20KT P6SM SCT250
     FM012300 18009KT P6SM BKN250
     FM020600 20012KT P6SM SCT050 BKN100
     FM021100 22014G22KT P6SM -SHRA BKN040
     FM021400 24015G25KT 4SM -SHRA BR OVC020=

Latest METAR

257
SAUS80 KWBC 011900 RRK
MTRJAX
METAR KJAX 011856Z 18016KT 10SM FEW045 SCT150 SCT250 22/09 A3012 RMK AO2
SLP199 T02220089


USA.gov is the U.S. government's official web portal to all federal, state and local government web resources and services.